sensor_id;sensor_type;location;lat;lon;timestamp;P1;durP1;ratioP1;P2;durP2;ratioP2
21860;SDS011;11095;48.066;8.540;2023-12-07T00:02:19;19.70;;;11.48;;
21860;SDS011;11095;48.066;8.540;2023-12-07T00:04:44;16.77;;;10.63;;
21860;SDS011;11095;48.066;8.540;2023-12-07T00:07:10;15.05;;;10.00;;
21860;SDS011;11095;48.066;8.540;2023-12-07T00:09:35;15.52;;;10.10;;
21860;SDS011;11095;48.066;8.540;2023-12-07T00:12:01;16.00;;;10.43;;
21860;SDS011;11095;48.066;8.540;2023-12-07T00:14:26;16.48;;;10.38;;
21860;SDS011;11095;48.066;8.540;2023-12-07T00:16:52;16.67;;;11.18;;
21860;SDS011;11095;48.066;8.540;2023-12-07T00:19:18;16.05;;;10.10;;
21860;SDS011;11095;48.066;8.540;2023-12-07T00:21:43;16.38;;;10.45;;
21860;SDS011;11095;48.066;8.540;2023-12-07T00:24:09;15.80;;;10.27;;
21860;SDS011;11095;48.066;8.540;2023-12-07T00:26:35;16.20;;;10.18;;
21860;SDS011;11095;48.066;8.540;2023-12-07T00:29:00;14.82;;;10.25;;
21860;SDS011;11095;48.066;8.540;2023-12-07T00:31:26;18.88;;;11.82;;
21860;SDS011;11095;48.066;8.540;2023-12-07T00:33:51;20.50;;;12.20;;
21860;SDS011;11095;48.066;8.540;2023-12-07T00:36:17;18.30;;;11.57;;
21860;SDS011;11095;48.066;8.540;2023-12-07T00:38:42;18.23;;;11.18;;
21860;SDS011;11095;48.066;8.540;2023-12-07T00:41:08;16.30;;;10.20;;
21860;SDS011;11095;48.066;8.540;2023-12-07T00:43:33;20.35;;;11.77;;
21860;SDS011;11095;48.066;8.540;2023-12-07T00:45:59;18.20;;;11.98;;
21860;SDS011;11095;48.066;8.540;2023-12-07T00:48:25;21.50;;;13.02;;
21860;SDS011;11095;48.066;8.540;2023-12-07T00:50:50;21.13;;;13.07;;
21860;SDS011;11095;48.066;8.540;2023-12-07T00:53:16;20.15;;;12.63;;
21860;SDS011;11095;48.066;8.540;2023-12-07T00:55:41;18.92;;;11.80;;
21860;SDS011;11095;48.066;8.540;2023-12-07T00:58:07;18.50;;;11.88;;
21860;SDS011;11095;48.066;8.540;2023-12-07T01:00:32;19.45;;;12.30;;
21860;SDS011;11095;48.066;8.540;2023-12-07T01:02:58;20.52;;;12.75;;
21860;SDS011;11095;48.066;8.540;2023-12-07T01:05:24;21.35;;;12.55;;
21860;SDS011;11095;48.066;8.540;2023-12-07T01:07:50;18.77;;;11.90;;
21860;SDS011;11095;48.066;8.540;2023-12-07T01:10:15;20.13;;;12.73;;
21860;SDS011;11095;48.066;8.540;2023-12-07T01:12:41;19.70;;;12.15;;
21860;SDS011;11095;48.066;8.540;2023-12-07T01:15:06;21.88;;;13.82;;
21860;SDS011;11095;48.066;8.540;2023-12-07T01:17:32;27.10;;;14.43;;
21860;SDS011;11095;48.066;8.540;2023-12-07T01:19:58;25.40;;;14.70;;
21860;SDS011;11095;48.066;8.540;2023-12-07T01:22:23;24.35;;;14.20;;
21860;SDS011;11095;48.066;8.540;2023-12-07T01:24:49;23.42;;;13.82;;
21860;SDS011;11095;48.066;8.540;2023-12-07T01:27:14;21.90;;;13.60;;
21860;SDS011;11095;48.066;8.540;2023-12-07T01:29:40;24.73;;;14.32;;
21860;SDS011;11095;48.066;8.540;2023-12-07T01:32:05;24.35;;;14.45;;
21860;SDS011;11095;48.066;8.540;2023-12-07T01:34:31;23.83;;;14.23;;
21860;SDS011;11095;48.066;8.540;2023-12-07T01:36:57;22.60;;;13.93;;
21860;SDS011;11095;48.066;8.540;2023-12-07T01:39:23;23.33;;;13.93;;
21860;SDS011;11095;48.066;8.540;2023-12-07T01:41:49;23.10;;;14.00;;
21860;SDS011;11095;48.066;8.540;2023-12-07T01:44:15;22.45;;;13.88;;
21860;SDS011;11095;48.066;8.540;2023-12-07T01:46:40;22.63;;;13.98;;
21860;SDS011;11095;48.066;8.540;2023-12-07T01:49:07;24.00;;;13.38;;
21860;SDS011;11095;48.066;8.540;2023-12-07T01:51:33;21.77;;;14.00;;
21860;SDS011;11095;48.066;8.540;2023-12-07T01:53:59;23.00;;;13.63;;
21860;SDS011;11095;48.066;8.540;2023-12-07T01:56:25;24.77;;;14.68;;
21860;SDS011;11095;48.066;8.540;2023-12-07T01:58:51;23.02;;;14.00;;
21860;SDS011;11095;48.066;8.540;2023-12-07T02:01:17;24.45;;;14.35;;
21860;SDS011;11095;48.066;8.540;2023-12-07T02:03:42;23.92;;;14.20;;
21860;SDS011;11095;48.066;8.540;2023-12-07T02:06:08;22.20;;;13.45;;
21860;SDS011;11095;48.066;8.540;2023-12-07T02:08:35;23.85;;;14.15;;
21860;SDS011;11095;48.066;8.540;2023-12-07T02:11:06;22.98;;;13.48;;
21860;SDS011;11095;48.066;8.540;2023-12-07T02:13:37;25.83;;;14.82;;
21860;SDS011;11095;48.066;8.540;2023-12-07T02:16:06;25.55;;;14.65;;
21860;SDS011;11095;48.066;8.540;2023-12-07T02:18:42;22.55;;;13.40;;
21860;SDS011;11095;48.066;8.540;2023-12-07T02:21:25;23.63;;;13.52;;
21860;SDS011;11095;48.066;8.540;2023-12-07T02:23:59;24.17;;;13.95;;
21860;SDS011;11095;48.066;8.540;2023-12-07T02:26:34;24.67;;;14.55;;
21860;SDS011;11095;48.066;8.540;2023-12-07T02:28:59;24.30;;;13.82;;
21860;SDS011;11095;48.066;8.540;2023-12-07T02:31:25;21.60;;;13.15;;
21860;SDS011;11095;48.066;8.540;2023-12-07T02:33:51;21.40;;;12.88;;
21860;SDS011;11095;48.066;8.540;2023-12-07T02:36:17;21.33;;;12.88;;
21860;SDS011;11095;48.066;8.540;2023-12-07T02:38:47;22.50;;;13.15;;
21860;SDS011;11095;48.066;8.540;2023-12-07T02:41:16;22.67;;;13.50;;
21860;SDS011;11095;48.066;8.540;2023-12-07T02:43:45;22.88;;;13.43;;
21860;SDS011;11095;48.066;8.540;2023-12-07T02:46:11;26.00;;;14.18;;
21860;SDS011;11095;48.066;8.540;2023-12-07T02:48:36;22.75;;;13.38;;
21860;SDS011;11095;48.066;8.540;2023-12-07T02:51:02;24.70;;;13.45;;
21860;SDS011;11095;48.066;8.540;2023-12-07T02:53:28;21.88;;;13.25;;
21860;SDS011;11095;48.066;8.540;2023-12-07T02:55:53;20.48;;;12.70;;
21860;SDS011;11095;48.066;8.540;2023-12-07T02:58:19;20.55;;;12.85;;
21860;SDS011;11095;48.066;8.540;2023-12-07T03:00:44;25.10;;;14.77;;
21860;SDS011;11095;48.066;8.540;2023-12-07T03:03:10;23.27;;;12.93;;
21860;SDS011;11095;48.066;8.540;2023-12-07T03:05:35;26.38;;;13.75;;
21860;SDS011;11095;48.066;8.540;2023-12-07T03:08:01;23.40;;;13.90;;
21860;SDS011;11095;48.066;8.540;2023-12-07T03:10:26;24.63;;;13.32;;
21860;SDS011;11095;48.066;8.540;2023-12-07T03:12:52;22.92;;;13.27;;
21860;SDS011;11095;48.066;8.540;2023-12-07T03:15:18;23.50;;;13.63;;
21860;SDS011;11095;48.066;8.540;2023-12-07T03:17:43;20.65;;;13.07;;
21860;SDS011;11095;48.066;8.540;2023-12-07T03:20:09;23.65;;;12.85;;
21860;SDS011;11095;48.066;8.540;2023-12-07T03:22:35;21.52;;;12.55;;
21860;SDS011;11095;48.066;8.540;2023-12-07T03:25:00;20.92;;;12.18;;
21860;SDS011;11095;48.066;8.540;2023-12-07T03:27:26;21.75;;;12.55;;
21860;SDS011;11095;48.066;8.540;2023-12-07T03:29:53;23.98;;;13.10;;
21860;SDS011;11095;48.066;8.540;2023-12-07T03:32:18;21.38;;;13.05;;
21860;SDS011;11095;48.066;8.540;2023-12-07T03:34:44;21.15;;;11.98;;
21860;SDS011;11095;48.066;8.540;2023-12-07T03:37:10;20.80;;;12.75;;
21860;SDS011;11095;48.066;8.540;2023-12-07T03:39:35;19.58;;;12.38;;
21860;SDS011;11095;48.066;8.540;2023-12-07T03:42:01;18.65;;;11.60;;
21860;SDS011;11095;48.066;8.540;2023-12-07T03:44:26;20.48;;;12.40;;
21860;SDS011;11095;48.066;8.540;2023-12-07T03:46:52;23.15;;;13.32;;
21860;SDS011;11095;48.066;8.540;2023-12-07T03:49:18;23.50;;;12.63;;
21860;SDS011;11095;48.066;8.540;2023-12-07T03:51:43;20.38;;;12.65;;
21860;SDS011;11095;48.066;8.540;2023-12-07T03:54:09;22.70;;;13.07;;
21860;SDS011;11095;48.066;8.540;2023-12-07T03:56:34;32.63;;;14.38;;
21860;SDS011;11095;48.066;8.540;2023-12-07T03:59:00;22.95;;;12.65;;
21860;SDS011;11095;48.066;8.540;2023-12-07T04:01:27;22.25;;;12.38;;
21860;SDS011;11095;48.066;8.540;2023-12-07T04:03:54;20.65;;;11.13;;
21860;SDS011;11095;48.066;8.540;2023-12-07T04:06:21;16.23;;;10.27;;
21860;SDS011;11095;48.066;8.540;2023-12-07T04:08:47;19.40;;;10.43;;
21860;SDS011;11095;48.066;8.540;2023-12-07T04:11:13;45.20;;;11.18;;
21860;SDS011;11095;48.066;8.540;2023-12-07T04:13:39;80.53;;;12.95;;
21860;SDS011;11095;48.066;8.540;2023-12-07T04:16:06;91.00;;;13.85;;
21860;SDS011;11095;48.066;8.540;2023-12-07T04:18:32;16.77;;;10.70;;
21860;SDS011;11095;48.066;8.540;2023-12-07T04:20:57;17.63;;;11.23;;
21860;SDS011;11095;48.066;8.540;2023-12-07T04:23:23;17.65;;;11.18;;
21860;SDS011;11095;48.066;8.540;2023-12-07T04:25:48;24.08;;;12.18;;
21860;SDS011;11095;48.066;8.540;2023-12-07T04:28:14;201.07;;;19.08;;
21860;SDS011;11095;48.066;8.540;2023-12-07T04:30:40;20.63;;;12.52;;
21860;SDS011;11095;48.066;8.540;2023-12-07T04:33:05;116.72;;;17.42;;
21860;SDS011;11095;48.066;8.540;2023-12-07T04:35:31;52.38;;;15.18;;
21860;SDS011;11095;48.066;8.540;2023-12-07T04:37:57;37.08;;;14.73;;
21860;SDS011;11095;48.066;8.540;2023-12-07T04:40:23;22.90;;;13.20;;
21860;SDS011;11095;48.066;8.540;2023-12-07T04:42:50;22.38;;;13.18;;
21860;SDS011;11095;48.066;8.540;2023-12-07T04:45:15;31.05;;;13.50;;
21860;SDS011;11095;48.066;8.540;2023-12-07T04:47:41;28.63;;;13.15;;
21860;SDS011;11095;48.066;8.540;2023-12-07T04:50:07;20.48;;;12.25;;
21860;SDS011;11095;48.066;8.540;2023-12-07T04:52:33;96.72;;;15.45;;
21860;SDS011;11095;48.066;8.540;2023-12-07T04:54:59;19.88;;;12.20;;
21860;SDS011;11095;48.066;8.540;2023-12-07T04:57:24;19.27;;;11.63;;
21860;SDS011;11095;48.066;8.540;2023-12-07T04:59:50;37.95;;;13.50;;
21860;SDS011;11095;48.066;8.540;2023-12-07T05:02:16;23.95;;;11.85;;
21860;SDS011;11095;48.066;8.540;2023-12-07T05:04:42;34.70;;;12.80;;
21860;SDS011;11095;48.066;8.540;2023-12-07T05:07:08;38.67;;;12.65;;
21860;SDS011;11095;48.066;8.540;2023-12-07T05:09:34;17.40;;;10.30;;
21860;SDS011;11095;48.066;8.540;2023-12-07T05:12:00;18.30;;;10.82;;
21860;SDS011;11095;48.066;8.540;2023-12-07T05:14:25;18.60;;;10.63;;
21860;SDS011;11095;48.066;8.540;2023-12-07T05:16:51;30.83;;;12.18;;
21860;SDS011;11095;48.066;8.540;2023-12-07T05:19:19;41.65;;;12.20;;
21860;SDS011;11095;48.066;8.540;2023-12-07T05:21:45;31.00;;;11.90;;
21860;SDS011;11095;48.066;8.540;2023-12-07T05:24:12;20.92;;;11.82;;
21860;SDS011;11095;48.066;8.540;2023-12-07T05:26:38;23.42;;;11.48;;
21860;SDS011;11095;48.066;8.540;2023-12-07T05:29:05;22.65;;;11.70;;
21860;SDS011;11095;48.066;8.540;2023-12-07T05:31:31;23.67;;;12.13;;
21860;SDS011;11095;48.066;8.540;2023-12-07T05:33:56;23.00;;;12.02;;
21860;SDS011;11095;48.066;8.540;2023-12-07T05:36:22;24.02;;;11.80;;
21860;SDS011;11095;48.066;8.540;2023-12-07T05:38:48;21.23;;;11.95;;
21860;SDS011;11095;48.066;8.540;2023-12-07T05:41:13;20.13;;;11.15;;
21860;SDS011;11095;48.066;8.540;2023-12-07T05:43:42;21.38;;;11.10;;
21860;SDS011;11095;48.066;8.540;2023-12-07T05:46:07;23.83;;;11.98;;
21860;SDS011;11095;48.066;8.540;2023-12-07T05:48:33;24.85;;;12.38;;
21860;SDS011;11095;48.066;8.540;2023-12-07T05:50:58;44.00;;;14.10;;
21860;SDS011;11095;48.066;8.540;2023-12-07T05:53:24;20.52;;;11.35;;
21860;SDS011;11095;48.066;8.540;2023-12-07T05:55:50;29.48;;;13.65;;
21860;SDS011;11095;48.066;8.540;2023-12-07T05:58:15;23.27;;;13.02;;
21860;SDS011;11095;48.066;8.540;2023-12-07T06:00:43;23.33;;;12.15;;
21860;SDS011;11095;48.066;8.540;2023-12-07T06:03:08;20.95;;;11.80;;
21860;SDS011;11095;48.066;8.540;2023-12-07T06:05:37;25.02;;;13.55;;
21860;SDS011;11095;48.066;8.540;2023-12-07T06:08:02;28.63;;;14.43;;
21860;SDS011;11095;48.066;8.540;2023-12-07T06:10:29;24.67;;;13.30;;
21860;SDS011;11095;48.066;8.540;2023-12-07T06:12:55;24.75;;;13.43;;
21860;SDS011;11095;48.066;8.540;2023-12-07T06:15:21;23.65;;;13.05;;
21860;SDS011;11095;48.066;8.540;2023-12-07T06:17:47;24.35;;;13.02;;
21860;SDS011;11095;48.066;8.540;2023-12-07T06:20:13;24.20;;;13.38;;
21860;SDS011;11095;48.066;8.540;2023-12-07T06:22:38;34.72;;;12.90;;
21860;SDS011;11095;48.066;8.540;2023-12-07T06:25:04;26.55;;;13.60;;
21860;SDS011;11095;48.066;8.540;2023-12-07T06:27:30;25.77;;;12.63;;
21860;SDS011;11095;48.066;8.540;2023-12-07T06:29:55;26.95;;;13.10;;
21860;SDS011;11095;48.066;8.540;2023-12-07T06:32:21;24.83;;;13.05;;
21860;SDS011;11095;48.066;8.540;2023-12-07T06:34:47;26.67;;;13.55;;
21860;SDS011;11095;48.066;8.540;2023-12-07T06:37:12;24.23;;;13.60;;
21860;SDS011;11095;48.066;8.540;2023-12-07T06:39:38;25.83;;;13.20;;
21860;SDS011;11095;48.066;8.540;2023-12-07T06:42:04;24.83;;;12.65;;
21860;SDS011;11095;48.066;8.540;2023-12-07T06:44:29;22.58;;;12.65;;
21860;SDS011;11095;48.066;8.540;2023-12-07T06:46:55;21.58;;;11.52;;
21860;SDS011;11095;48.066;8.540;2023-12-07T06:49:20;22.48;;;11.55;;
21860;SDS011;11095;48.066;8.540;2023-12-07T06:51:46;19.92;;;11.10;;
21860;SDS011;11095;48.066;8.540;2023-12-07T06:54:11;20.58;;;11.57;;
21860;SDS011;11095;48.066;8.540;2023-12-07T06:56:38;18.83;;;10.77;;
21860;SDS011;11095;48.066;8.540;2023-12-07T06:59:04;20.33;;;10.80;;
21860;SDS011;11095;48.066;8.540;2023-12-07T07:01:29;16.60;;;9.95;;
21860;SDS011;11095;48.066;8.540;2023-12-07T07:03:55;19.15;;;10.68;;
21860;SDS011;11095;48.066;8.540;2023-12-07T07:06:21;19.02;;;10.55;;
21860;SDS011;11095;48.066;8.540;2023-12-07T07:08:47;19.85;;;10.32;;
21860;SDS011;11095;48.066;8.540;2023-12-07T07:11:14;20.27;;;10.27;;
21860;SDS011;11095;48.066;8.540;2023-12-07T07:13:40;26.02;;;11.43;;
21860;SDS011;11095;48.066;8.540;2023-12-07T07:16:07;25.17;;;12.07;;
21860;SDS011;11095;48.066;8.540;2023-12-07T07:18:33;22.33;;;11.25;;
21860;SDS011;11095;48.066;8.540;2023-12-07T07:20:58;18.13;;;9.55;;
21860;SDS011;11095;48.066;8.540;2023-12-07T07:23:24;19.60;;;9.85;;
21860;SDS011;11095;48.066;8.540;2023-12-07T07:25:49;17.95;;;9.38;;
21860;SDS011;11095;48.066;8.540;2023-12-07T07:28:15;20.15;;;9.68;;
21860;SDS011;11095;48.066;8.540;2023-12-07T07:30:40;18.58;;;10.02;;
21860;SDS011;11095;48.066;8.540;2023-12-07T07:33:06;21.05;;;10.88;;
21860;SDS011;11095;48.066;8.540;2023-12-07T07:35:32;27.40;;;11.57;;
21860;SDS011;11095;48.066;8.540;2023-12-07T07:37:57;25.25;;;10.75;;
21860;SDS011;11095;48.066;8.540;2023-12-07T07:40:23;18.83;;;10.27;;
21860;SDS011;11095;48.066;8.540;2023-12-07T07:42:49;22.58;;;9.50;;
21860;SDS011;11095;48.066;8.540;2023-12-07T07:45:15;16.35;;;9.40;;
21860;SDS011;11095;48.066;8.540;2023-12-07T07:47:41;18.02;;;8.80;;
21860;SDS011;11095;48.066;8.540;2023-12-07T07:50:07;13.55;;;8.07;;
21860;SDS011;11095;48.066;8.540;2023-12-07T07:52:33;13.45;;;8.20;;
21860;SDS011;11095;48.066;8.540;2023-12-07T07:55:00;14.75;;;7.97;;
21860;SDS011;11095;48.066;8.540;2023-12-07T07:57:27;15.15;;;8.25;;
21860;SDS011;11095;48.066;8.540;2023-12-07T07:59:53;13.65;;;7.95;;
21860;SDS011;11095;48.066;8.540;2023-12-07T08:02:19;14.65;;;9.13;;
21860;SDS011;11095;48.066;8.540;2023-12-07T08:04:46;15.48;;;8.93;;
21860;SDS011;11095;48.066;8.540;2023-12-07T08:07:12;15.18;;;9.05;;
21860;SDS011;11095;48.066;8.540;2023-12-07T08:09:38;12.80;;;8.50;;
21860;SDS011;11095;48.066;8.540;2023-12-07T08:12:04;14.43;;;8.93;;
21860;SDS011;11095;48.066;8.540;2023-12-07T08:14:31;13.45;;;8.25;;
21860;SDS011;11095;48.066;8.540;2023-12-07T08:16:56;10.65;;;7.10;;
21860;SDS011;11095;48.066;8.540;2023-12-07T08:19:22;7.30;;;5.38;;
21860;SDS011;11095;48.066;8.540;2023-12-07T08:21:47;5.53;;;4.50;;
21860;SDS011;11095;48.066;8.540;2023-12-07T08:24:13;5.85;;;4.70;;
21860;SDS011;11095;48.066;8.540;2023-12-07T08:26:38;5.45;;;4.32;;
21860;SDS011;11095;48.066;8.540;2023-12-07T08:29:04;6.05;;;4.70;;
21860;SDS011;11095;48.066;8.540;2023-12-07T08:31:31;7.68;;;5.00;;
21860;SDS011;11095;48.066;8.540;2023-12-07T08:33:57;7.63;;;5.50;;
21860;SDS011;11095;48.066;8.540;2023-12-07T08:36:22;8.50;;;5.35;;
21860;SDS011;11095;48.066;8.540;2023-12-07T08:38:48;6.80;;;4.90;;
21860;SDS011;11095;48.066;8.540;2023-12-07T08:41:13;8.25;;;5.20;;
21860;SDS011;11095;48.066;8.540;2023-12-07T08:43:39;7.18;;;4.97;;
21860;SDS011;11095;48.066;8.540;2023-12-07T08:46:05;6.47;;;4.90;;
21860;SDS011;11095;48.066;8.540;2023-12-07T08:48:32;7.75;;;5.72;;
21860;SDS011;11095;48.066;8.540;2023-12-07T08:50:59;8.30;;;6.25;;
21860;SDS011;11095;48.066;8.540;2023-12-07T08:53:24;10.40;;;6.18;;
21860;SDS011;11095;48.066;8.540;2023-12-07T08:55:51;10.07;;;6.55;;
21860;SDS011;11095;48.066;8.540;2023-12-07T08:58:17;10.10;;;6.70;;
21860;SDS011;11095;48.066;8.540;2023-12-07T09:00:43;11.82;;;6.80;;
21860;SDS011;11095;48.066;8.540;2023-12-07T09:03:09;13.50;;;6.90;;
21860;SDS011;11095;48.066;8.540;2023-12-07T09:05:35;10.93;;;6.78;;
21860;SDS011;11095;48.066;8.540;2023-12-07T09:08:00;16.55;;;9.15;;
21860;SDS011;11095;48.066;8.540;2023-12-07T09:10:26;14.02;;;7.95;;
21860;SDS011;11095;48.066;8.540;2023-12-07T09:12:53;13.05;;;7.85;;
21860;SDS011;11095;48.066;8.540;2023-12-07T09:15:18;18.65;;;8.63;;
21860;SDS011;11095;48.066;8.540;2023-12-07T09:17:44;14.07;;;8.35;;
21860;SDS011;11095;48.066;8.540;2023-12-07T09:20:09;16.90;;;8.75;;
21860;SDS011;11095;48.066;8.540;2023-12-07T09:25:06;15.05;;;8.07;;
21860;SDS011;11095;48.066;8.540;2023-12-07T09:27:33;13.63;;;7.88;;
21860;SDS011;11095;48.066;8.540;2023-12-07T09:29:59;13.65;;;7.78;;
21860;SDS011;11095;48.066;8.540;2023-12-07T09:32:26;14.98;;;8.60;;
21860;SDS011;11095;48.066;8.540;2023-12-07T09:34:53;13.55;;;8.18;;
21860;SDS011;11095;48.066;8.540;2023-12-07T09:37:18;13.10;;;8.00;;
21860;SDS011;11095;48.066;8.540;2023-12-07T09:39:44;10.82;;;7.28;;
21860;SDS011;11095;48.066;8.540;2023-12-07T09:42:10;12.75;;;8.32;;
21860;SDS011;11095;48.066;8.540;2023-12-07T09:44:36;13.75;;;8.38;;
21860;SDS011;11095;48.066;8.540;2023-12-07T09:47:01;13.80;;;8.90;;
21860;SDS011;11095;48.066;8.540;2023-12-07T09:49:27;14.52;;;9.40;;
21860;SDS011;11095;48.066;8.540;2023-12-07T09:51:54;14.13;;;9.23;;
21860;SDS011;11095;48.066;8.540;2023-12-07T09:54:21;15.23;;;9.98;;
21860;SDS011;11095;48.066;8.540;2023-12-07T09:56:47;15.00;;;9.45;;
21860;SDS011;11095;48.066;8.540;2023-12-07T09:59:13;15.02;;;9.35;;
21860;SDS011;11095;48.066;8.540;2023-12-07T10:01:38;15.55;;;9.20;;
21860;SDS011;11095;48.066;8.540;2023-12-07T10:06:43;15.27;;;9.48;;
21860;SDS011;11095;48.066;8.540;2023-12-07T10:09:13;17.17;;;9.75;;
21860;SDS011;11095;48.066;8.540;2023-12-07T10:11:39;16.73;;;9.52;;
21860;SDS011;11095;48.066;8.540;2023-12-07T10:14:06;17.10;;;10.30;;
21860;SDS011;11095;48.066;8.540;2023-12-07T10:16:32;19.00;;;10.82;;
21860;SDS011;11095;48.066;8.540;2023-12-07T10:19:15;19.23;;;11.35;;
21860;SDS011;11095;48.066;8.540;2023-12-07T10:21:46;18.42;;;10.88;;
21860;SDS011;11095;48.066;8.540;2023-12-07T10:24:16;17.95;;;10.43;;
21860;SDS011;11095;48.066;8.540;2023-12-07T10:26:46;15.32;;;9.90;;
21860;SDS011;11095;48.066;8.540;2023-12-07T10:29:13;20.00;;;11.90;;
21860;SDS011;11095;48.066;8.540;2023-12-07T10:31:38;20.33;;;12.35;;
21860;SDS011;11095;48.066;8.540;2023-12-07T10:34:04;20.77;;;12.20;;
21860;SDS011;11095;48.066;8.540;2023-12-07T10:36:31;20.95;;;12.10;;
21860;SDS011;11095;48.066;8.540;2023-12-07T10:38:57;22.52;;;12.88;;
21860;SDS011;11095;48.066;8.540;2023-12-07T10:41:23;18.45;;;11.23;;
21860;SDS011;11095;48.066;8.540;2023-12-07T10:43:54;18.15;;;10.70;;
21860;SDS011;11095;48.066;8.540;2023-12-07T10:46:25;20.60;;;11.68;;
21860;SDS011;11095;48.066;8.540;2023-12-07T10:48:53;20.05;;;11.38;;
21860;SDS011;11095;48.066;8.540;2023-12-07T10:53:55;18.52;;;12.13;;
21860;SDS011;11095;48.066;8.540;2023-12-07T10:56:44;17.63;;;10.45;;
21860;SDS011;11095;48.066;8.540;2023-12-07T10:59:10;15.00;;;10.18;;
21860;SDS011;11095;48.066;8.540;2023-12-07T11:01:39;16.58;;;11.00;;
21860;SDS011;11095;48.066;8.540;2023-12-07T11:04:07;17.58;;;11.07;;
21860;SDS011;11095;48.066;8.540;2023-12-07T11:06:37;15.75;;;10.95;;
21860;SDS011;11095;48.066;8.540;2023-12-07T11:09:06;15.38;;;10.23;;
21860;SDS011;11095;48.066;8.540;2023-12-07T11:11:43;16.27;;;10.57;;
21860;SDS011;11095;48.066;8.540;2023-12-07T11:14:16;15.68;;;10.40;;
21860;SDS011;11095;48.066;8.540;2023-12-07T11:16:43;15.95;;;10.15;;
21860;SDS011;11095;48.066;8.540;2023-12-07T11:21:54;15.55;;;10.15;;
21860;SDS011;11095;48.066;8.540;2023-12-07T11:24:21;15.32;;;9.98;;
21860;SDS011;11095;48.066;8.540;2023-12-07T11:26:48;16.20;;;10.52;;
21860;SDS011;11095;48.066;8.540;2023-12-07T11:29:19;15.05;;;10.10;;
21860;SDS011;11095;48.066;8.540;2023-12-07T11:31:45;16.67;;;10.70;;
21860;SDS011;11095;48.066;8.540;2023-12-07T11:34:11;16.85;;;9.98;;
21860;SDS011;11095;48.066;8.540;2023-12-07T11:36:39;15.38;;;9.70;;
21860;SDS011;11095;48.066;8.540;2023-12-07T11:41:34;15.13;;;9.65;;
21860;SDS011;11095;48.066;8.540;2023-12-07T11:44:05;14.52;;;9.45;;
21860;SDS011;11095;48.066;8.540;2023-12-07T11:46:30;14.23;;;9.65;;
21860;SDS011;11095;48.066;8.540;2023-12-07T11:48:56;13.98;;;9.13;;
21860;SDS011;11095;48.066;8.540;2023-12-07T11:51:23;15.68;;;9.85;;
21860;SDS011;11095;48.066;8.540;2023-12-07T11:53:49;14.68;;;9.60;;
21860;SDS011;11095;48.066;8.540;2023-12-07T11:56:16;13.63;;;9.35;;
21860;SDS011;11095;48.066;8.540;2023-12-07T11:58:45;15.70;;;9.75;;
21860;SDS011;11095;48.066;8.540;2023-12-07T12:01:11;15.13;;;9.73;;
21860;SDS011;11095;48.066;8.540;2023-12-07T12:03:37;15.73;;;9.82;;
21860;SDS011;11095;48.066;8.540;2023-12-07T12:06:03;16.60;;;10.80;;
21860;SDS011;11095;48.066;8.540;2023-12-07T12:08:30;13.98;;;9.25;;
21860;SDS011;11095;48.066;8.540;2023-12-07T12:10:56;15.90;;;10.02;;
21860;SDS011;11095;48.066;8.540;2023-12-07T12:13:28;14.43;;;9.70;;
21860;SDS011;11095;48.066;8.540;2023-12-07T12:16:03;14.52;;;9.73;;
21860;SDS011;11095;48.066;8.540;2023-12-07T12:18:29;15.18;;;9.68;;
21860;SDS011;11095;48.066;8.540;2023-12-07T12:20:55;14.95;;;9.98;;
21860;SDS011;11095;48.066;8.540;2023-12-07T12:23:22;15.82;;;10.13;;
21860;SDS011;11095;48.066;8.540;2023-12-07T12:25:48;15.40;;;10.55;;
21860;SDS011;11095;48.066;8.540;2023-12-07T12:28:15;14.63;;;10.00;;
21860;SDS011;11095;48.066;8.540;2023-12-07T12:30:46;15.73;;;10.15;;
21860;SDS011;11095;48.066;8.540;2023-12-07T12:33:13;16.30;;;9.85;;
21860;SDS011;11095;48.066;8.540;2023-12-07T12:35:39;15.00;;;9.65;;
21860;SDS011;11095;48.066;8.540;2023-12-07T12:38:08;13.13;;;9.02;;
21860;SDS011;11095;48.066;8.540;2023-12-07T12:40:35;15.13;;;9.52;;
21860;SDS011;11095;48.066;8.540;2023-12-07T12:43:01;13.07;;;8.85;;
21860;SDS011;11095;48.066;8.540;2023-12-07T12:45:27;14.65;;;9.52;;
21860;SDS011;11095;48.066;8.540;2023-12-07T12:47:53;13.60;;;8.55;;
21860;SDS011;11095;48.066;8.540;2023-12-07T12:50:36;12.82;;;8.48;;
21860;SDS011;11095;48.066;8.540;2023-12-07T12:53:04;13.43;;;8.45;;
21860;SDS011;11095;48.066;8.540;2023-12-07T12:55:35;13.35;;;8.63;;
21860;SDS011;11095;48.066;8.540;2023-12-07T12:58:09;14.95;;;9.95;;
21860;SDS011;11095;48.066;8.540;2023-12-07T13:00:38;14.38;;;9.55;;
21860;SDS011;11095;48.066;8.540;2023-12-07T13:03:04;15.55;;;9.98;;
21860;SDS011;11095;48.066;8.540;2023-12-07T13:05:31;15.57;;;10.23;;
21860;SDS011;11095;48.066;8.540;2023-12-07T13:08:00;15.13;;;10.60;;
21860;SDS011;11095;48.066;8.540;2023-12-07T13:10:26;14.02;;;9.70;;
21860;SDS011;11095;48.066;8.540;2023-12-07T13:12:52;14.10;;;9.40;;
21860;SDS011;11095;48.066;8.540;2023-12-07T13:15:18;15.20;;;10.10;;
21860;SDS011;11095;48.066;8.540;2023-12-07T13:17:43;13.82;;;9.32;;
21860;SDS011;11095;48.066;8.540;2023-12-07T13:20:10;13.18;;;8.82;;
21860;SDS011;11095;48.066;8.540;2023-12-07T13:22:36;15.05;;;8.93;;
21860;SDS011;11095;48.066;8.540;2023-12-07T13:25:02;14.20;;;9.10;;
21860;SDS011;11095;48.066;8.540;2023-12-07T13:27:28;13.15;;;8.68;;
21860;SDS011;11095;48.066;8.540;2023-12-07T13:29:54;15.10;;;9.40;;
21860;SDS011;11095;48.066;8.540;2023-12-07T13:32:20;12.75;;;8.77;;
21860;SDS011;11095;48.066;8.540;2023-12-07T13:34:46;12.60;;;8.32;;
21860;SDS011;11095;48.066;8.540;2023-12-07T13:37:12;13.75;;;8.90;;
21860;SDS011;11095;48.066;8.540;2023-12-07T13:39:37;13.35;;;9.05;;
21860;SDS011;11095;48.066;8.540;2023-12-07T13:42:03;12.60;;;8.65;;
21860;SDS011;11095;48.066;8.540;2023-12-07T13:44:28;16.42;;;10.02;;
21860;SDS011;11095;48.066;8.540;2023-12-07T13:46:54;14.82;;;9.43;;
21860;SDS011;11095;48.066;8.540;2023-12-07T13:49:21;15.15;;;8.93;;
21860;SDS011;11095;48.066;8.540;2023-12-07T13:51:46;16.65;;;9.48;;
21860;SDS011;11095;48.066;8.540;2023-12-07T13:54:12;14.85;;;9.25;;
21860;SDS011;11095;48.066;8.540;2023-12-07T13:56:37;14.82;;;9.35;;
21860;SDS011;11095;48.066;8.540;2023-12-07T13:59:03;14.15;;;8.82;;
21860;SDS011;11095;48.066;8.540;2023-12-07T14:01:31;13.40;;;8.60;;
21860;SDS011;11095;48.066;8.540;2023-12-07T14:03:57;14.32;;;9.27;;
21860;SDS011;11095;48.066;8.540;2023-12-07T14:06:23;12.82;;;8.60;;
21860;SDS011;11095;48.066;8.540;2023-12-07T14:08:49;16.38;;;10.35;;
21860;SDS011;11095;48.066;8.540;2023-12-07T14:11:16;13.68;;;9.38;;
21860;SDS011;11095;48.066;8.540;2023-12-07T14:13:43;15.10;;;9.10;;
21860;SDS011;11095;48.066;8.540;2023-12-07T14:16:11;13.95;;;9.05;;
21860;SDS011;11095;48.066;8.540;2023-12-07T14:18:37;14.18;;;9.43;;
21860;SDS011;11095;48.066;8.540;2023-12-07T14:21:02;12.40;;;8.00;;
21860;SDS011;11095;48.066;8.540;2023-12-07T14:23:28;12.80;;;8.35;;
21860;SDS011;11095;48.066;8.540;2023-12-07T14:25:54;11.85;;;7.88;;
21860;SDS011;11095;48.066;8.540;2023-12-07T14:28:23;12.70;;;8.40;;
21860;SDS011;11095;48.066;8.540;2023-12-07T14:30:49;12.38;;;8.30;;
21860;SDS011;11095;48.066;8.540;2023-12-07T14:33:15;12.73;;;8.02;;
21860;SDS011;11095;48.066;8.540;2023-12-07T14:35:40;14.18;;;8.68;;